Time;durP1;ratioP1;P1;durP2;ratioP2;P2;SDS_P1;SDS_P2;PMS_P1;PMS_P2;Temp;Humidity;BMP_temperature;BMP_pressure;BME280_temperature;BME280_humidity;BME280_pressure;Samples;Min_cycle;Max_cycle;Signal;HPM_P1;HPM_P2
2021/03/05 00:00:07;;;;;;;14.17;8.90;;;4.10;99.90;;;;;;5053168;28;20438;-71
2021/03/05 00:02:33;;;;;;;16.20;8.60;;;4.00;99.90;;;;;;5052924;28;20471;-71
2021/03/05 00:04:59;;;;;;;21.33;9.90;;;4.10;99.90;;;;;;5054233;28;20413;-71
2021/03/05 00:07:24;;;;;;;20.40;8.73;;;4.00;99.90;;;;;;5056426;28;20299;-71
2021/03/05 00:09:50;;;;;;;16.37;8.83;;;4.00;99.90;;;;;;5056392;28;20229;-71
2021/03/05 00:12:16;;;;;;;12.80;7.80;;;4.00;99.90;;;;;;5057532;28;20206;-71
2021/03/05 00:14:43;;;;;;;16.07;8.23;;;3.90;99.90;;;;;;5057637;28;20365;-71
2021/03/05 00:17:25;;;;;;;10.43;7.73;;;4.00;99.90;;;;;;5057397;28;20257;-71
2021/03/05 00:19:51;;;;;;;18.70;7.73;;;4.00;99.90;;;;;;5066880;28;20483;-70
2021/03/05 00:22:16;;;;;;;15.70;7.37;;;4.00;99.90;;;;;;5072144;28;20458;-71
2021/03/05 00:24:42;;;;;;;13.23;7.67;;;3.90;99.90;;;;;;5059087;28;20182;-71
2021/03/05 00:27:07;;;;;;;18.73;8.30;;;3.90;99.90;;;;;;5072627;28;20172;-71
2021/03/05 00:29:33;;;;;;;20.17;7.80;;;3.90;99.90;;;;;;5073756;28;20215;-71
2021/03/05 00:31:58;;;;;;;11.33;6.70;;;3.90;99.90;;;;;;5064725;28;20227;-70
2021/03/05 00:34:24;;;;;;;19.63;6.70;;;4.00;99.90;;;;;;5057199;28;20177;-70
2021/03/05 00:36:49;;;;;;;17.87;6.27;;;3.90;99.90;;;;;;5055734;28;20583;-71
2021/03/05 00:39:15;;;;;;;11.20;6.60;;;3.90;99.90;;;;;;5056076;28;20283;-71
2021/03/05 00:41:40;;;;;;;10.20;6.87;;;3.90;99.90;;;;;;5057081;28;20190;-71
2021/03/05 00:44:06;;;;;;;16.60;6.43;;;3.80;99.90;;;;;;5057007;28;20175;-71
2021/03/05 00:46:33;;;;;;;13.30;6.40;;;3.80;99.90;;;;;;5056228;28;20174;-71
2021/03/05 00:48:59;;;;;;;13.83;6.77;;;3.70;99.90;;;;;;5056013;28;20421;-71
2021/03/05 00:51:25;;;;;;;12.67;6.60;;;3.70;99.90;;;;;;5055587;28;20440;-71
2021/03/05 00:53:52;;;;;;;12.60;7.30;;;3.70;99.90;;;;;;5054840;28;20472;-71
2021/03/05 00:56:18;;;;;;;13.77;6.00;;;3.70;99.90;;;;;;5055710;28;20417;-71
2021/03/05 00:58:43;;;;;;;11.77;6.23;;;3.70;99.90;;;;;;5055355;28;20449;-71
2021/03/05 01:01:09;;;;;;;13.33;6.40;;;3.70;99.90;;;;;;5055449;28;20488;-71
2021/03/05 01:03:35;;;;;;;12.27;6.80;;;3.70;99.90;;;;;;5056489;28;20174;-72
2021/03/05 01:06:01;;;;;;;18.03;6.90;;;3.70;99.90;;;;;;5056049;28;20181;-71
2021/03/05 01:08:27;;;;;;;10.70;6.63;;;3.80;99.90;;;;;;5055554;28;20236;-70
2021/03/05 01:10:52;;;;;;;15.43;7.67;;;3.70;99.90;;;;;;5056071;28;20926;-70
2021/03/05 01:13:18;;;;;;;13.80;7.30;;;3.80;99.90;;;;;;5055530;28;20565;-70
2021/03/05 01:15:44;;;;;;;22.20;8.00;;;3.70;99.90;;;;;;5056047;28;20431;-70
2021/03/05 01:18:09;;;;;;;20.33;8.10;;;3.70;99.90;;;;;;5055652;28;20304;-70
2021/03/05 01:20:36;;;;;;;18.00;8.37;;;3.70;99.90;;;;;;5055806;28;20199;-71
2021/03/05 01:23:02;;;;;;;23.27;7.77;;;3.70;99.90;;;;;;5055259;28;20171;-70
2021/03/05 01:25:30;;;;;;;13.47;8.27;;;3.80;99.90;;;;;;5055475;28;20427;-71
2021/03/05 01:27:56;;;;;;;13.93;9.50;;;3.70;99.90;;;;;;5055528;28;20765;-71
2021/03/05 01:30:22;;;;;;;17.83;8.40;;;3.60;99.90;;;;;;5053830;28;20454;-71
2021/03/05 01:32:49;;;;;;;18.33;9.00;;;3.50;99.90;;;;;;5055316;28;20431;-71
2021/03/05 01:35:17;;;;;;;19.13;9.73;;;3.40;99.90;;;;;;5055713;28;20413;-71
2021/03/05 01:37:43;;;;;;;17.83;9.50;;;3.50;99.90;;;;;;5055303;28;20907;-71
2021/03/05 01:40:16;;;;;;;17.53;9.30;;;3.60;99.90;;;;;;5054963;28;20480;-71
2021/03/05 01:42:42;;;;;;;24.30;10.10;;;3.60;99.90;;;;;;5054980;28;20409;-71
2021/03/05 01:45:11;;;;;;;13.23;9.30;;;3.60;99.90;;;;;;5054435;28;20781;-71
2021/03/05 01:47:36;;;;;;;17.87;9.60;;;3.60;99.90;;;;;;5054975;28;20469;-71
2021/03/05 01:50:11;;;;;;;19.20;10.40;;;3.60;99.90;;;;;;5053252;28;20437;-71
2021/03/05 01:52:39;;;;;;;18.60;10.23;;;3.60;99.90;;;;;;5055136;28;20177;-73
2021/03/05 01:55:05;;;;;;;18.97;11.13;;;3.60;99.90;;;;;;5054176;28;20904;-71
2021/03/05 01:57:31;;;;;;;21.90;11.30;;;3.60;99.90;;;;;;5054806;28;20408;-71
2021/03/05 01:59:56;;;;;;;21.83;11.00;;;3.60;99.90;;;;;;5054553;28;20431;-71
2021/03/05 02:02:22;;;;;;;23.67;12.07;;;3.50;99.90;;;;;;5054729;28;20183;-71
2021/03/05 02:04:47;;;;;;;22.00;11.67;;;3.60;99.90;;;;;;5052978;28;20177;-71
2021/03/05 02:07:13;;;;;;;22.13;13.60;;;3.50;99.90;;;;;;5054830;28;20681;-71
2021/03/05 02:09:38;;;;;;;22.50;13.63;;;3.50;99.90;;;;;;5054150;28;20218;-71
2021/03/05 02:12:04;;;;;;;28.93;15.13;;;3.40;99.90;;;;;;5054342;28;20697;-71
2021/03/05 02:14:31;;;;;;;29.37;15.90;;;3.40;99.90;;;;;;5054426;28;20174;-71
2021/03/05 02:17:28;;;;;;;37.37;15.93;;;3.40;99.90;;;;;;5054049;28;20421;-71
2021/03/05 02:20:18;;;;;;;29.13;16.40;;;3.40;99.90;;;;;;5053834;28;20461;-71
2021/03/05 02:23:21;;;;;;;35.57;17.67;;;3.50;99.90;;;;;;5054930;28;20409;-71
2021/03/05 02:26:24;;;;;;;27.23;16.20;;;3.60;99.90;;;;;;5054469;28;20420;-71
2021/03/05 02:29:17;;;;;;;32.97;17.57;;;3.60;99.90;;;;;;5053525;28;20441;-71
2021/03/05 02:31:47;;;;;;;28.03;15.73;;;3.70;99.90;;;;;;5053144;28;20435;-71
2021/03/05 02:34:18;;;;;;;28.00;16.00;;;3.70;99.90;;;;;;5053965;28;20405;-71
2021/03/05 02:36:56;;;;;;;31.83;17.53;;;3.70;99.90;;;;;;5054131;28;20737;-71
2021/03/05 02:39:33;;;;;;;26.83;16.10;;;3.80;99.90;;;;;;5054178;28;20903;-71
2021/03/05 02:42:01;;;;;;;27.80;16.07;;;3.90;99.90;;;;;;5053964;28;20403;-71
2021/03/05 02:44:30;;;;;;;30.77;17.80;;;4.00;99.90;;;;;;5053877;28;20952;-71
2021/03/05 02:47:02;;;;;;;34.33;18.00;;;4.00;99.90;;;;;;5054320;28;20793;-71
2021/03/05 02:49:32;;;;;;;29.03;16.03;;;4.20;99.90;;;;;;5052261;28;20421;-71
2021/03/05 02:52:04;;;;;;;27.13;17.40;;;4.10;99.90;;;;;;5053177;28;20426;-71
2021/03/05 02:54:31;;;;;;;23.83;15.10;;;4.00;99.90;;;;;;5053779;28;20455;-71
2021/03/05 02:56:59;;;;;;;26.33;17.40;;;4.10;99.90;;;;;;5053569;28;20892;-71
2021/03/05 02:59:26;;;;;;;26.00;16.10;;;4.20;99.90;;;;;;5053758;28;20493;-71
2021/03/05 03:01:53;;;;;;;26.03;15.83;;;4.30;99.90;;;;;;5054175;28;20408;-71
2021/03/05 03:04:20;;;;;;;27.03;15.17;;;4.20;99.90;;;;;;5054306;28;20441;-71
2021/03/05 03:06:48;;;;;;;22.70;16.07;;;4.30;99.90;;;;;;5053423;28;20430;-71
2021/03/05 03:09:14;;;;;;;26.93;16.10;;;4.40;99.90;;;;;;5053526;28;20437;-72
2021/03/05 03:11:43;;;;;;;22.07;14.40;;;4.40;99.90;;;;;;5053987;28;20408;-71
2021/03/05 03:14:10;;;;;;;26.80;15.73;;;4.50;99.90;;;;;;5053537;28;20416;-71
2021/03/05 03:16:37;;;;;;;22.27;15.00;;;4.50;99.90;;;;;;5054579;28;20490;-71
2021/03/05 03:19:08;;;;;;;22.93;15.20;;;4.50;99.90;;;;;;5053379;28;20519;-71
2021/03/05 03:21:35;;;;;;;23.10;15.13;;;4.40;99.90;;;;;;5053878;28;20415;-71
2021/03/05 03:24:00;;;;;;;25.57;15.80;;;4.50;99.90;;;;;;5053738;28;20418;-71
2021/03/05 03:26:26;;;;;;;26.43;16.40;;;4.50;99.90;;;;;;5053382;28;20944;-71
2021/03/05 03:28:52;;;;;;;25.47;16.40;;;4.50;99.90;;;;;;5053363;28;20201;-71
2021/03/05 03:31:17;;;;;;;27.10;17.20;;;4.60;99.90;;;;;;5053547;28;20184;-71
2021/03/05 03:33:45;;;;;;;28.03;16.03;;;4.60;99.90;;;;;;5053277;28;20173;-71
2021/03/05 03:36:12;;;;;;;22.03;15.23;;;4.60;99.90;;;;;;5053889;28;20486;-71
2021/03/05 03:38:39;;;;;;;25.13;15.57;;;4.70;99.90;;;;;;5052200;28;20459;-71
2021/03/05 03:41:05;;;;;;;22.77;15.53;;;4.70;99.90;;;;;;5058587;28;20584;-71
2021/03/05 03:43:30;;;;;;;27.70;15.90;;;4.60;99.90;;;;;;5058673;28;20872;-70
2021/03/05 03:45:56;;;;;;;18.70;13.33;;;4.40;99.90;;;;;;5070623;28;20417;-71
2021/03/05 03:48:22;;;;;;;22.37;13.20;;;4.30;99.90;;;;;;5075109;28;20187;-71
2021/03/05 03:51:00;;;;;;;21.50;14.87;;;4.20;99.90;;;;;;5059987;28;20427;-71
2021/03/05 03:53:27;;;;;;;24.53;14.10;;;4.40;99.90;;;;;;5075926;28;20654;-71
2021/03/05 03:55:53;;;;;;;18.93;13.87;;;4.50;99.90;;;;;;5077313;28;20431;-71
2021/03/05 03:58:24;;;;;;;17.47;12.93;;;4.50;99.90;;;;;;5063742;28;20532;-71
2021/03/05 04:00:59;;;;;;;20.90;12.97;;;4.50;99.90;;;;;;5056553;28;20442;-71
2021/03/05 04:03:29;;;;;;;21.47;13.80;;;4.60;99.90;;;;;;5057638;28;20446;-71
2021/03/05 04:05:56;;;;;;;21.30;14.27;;;4.70;99.90;;;;;;5056079;28;20416;-71
2021/03/05 04:08:24;;;;;;;18.80;12.80;;;4.80;99.90;;;;;;5057114;28;20477;-72
2021/03/05 04:10:51;;;;;;;18.53;12.37;;;4.80;99.90;;;;;;5057056;28;20955;-71
2021/03/05 04:13:17;;;;;;;18.97;13.20;;;4.70;99.90;;;;;;5056718;28;20459;-71
2021/03/05 04:15:42;;;;;;;21.30;13.30;;;4.60;99.90;;;;;;5056832;28;20416;-71
2021/03/05 04:18:09;;;;;;;16.60;12.00;;;4.50;99.90;;;;;;5056555;28;20463;-71
2021/03/05 04:20:39;;;;;;;17.63;12.30;;;4.40;99.90;;;;;;5056476;28;20215;-71
2021/03/05 04:23:06;;;;;;;17.60;11.97;;;4.40;99.90;;;;;;5056221;28;20967;-71
2021/03/05 04:25:32;;;;;;;16.07;11.63;;;4.40;99.90;;;;;;5056254;28;20399;-71
2021/03/05 04:27:58;;;;;;;18.97;13.03;;;4.50;99.90;;;;;;5056452;28;20467;-71
2021/03/05 04:30:24;;;;;;;16.30;11.47;;;4.50;99.90;;;;;;5056433;28;20443;-71
2021/03/05 04:32:50;;;;;;;15.47;11.37;;;4.50;99.90;;;;;;5056961;28;20446;-71
2021/03/05 04:35:16;;;;;;;14.80;11.47;;;4.40;99.90;;;;;;5056269;28;20435;-71
2021/03/05 04:37:41;;;;;;;16.57;11.97;;;4.40;99.90;;;;;;5056713;28;20848;-71
2021/03/05 04:40:09;;;;;;;17.53;12.10;;;4.50;99.90;;;;;;5056099;28;20189;-71
2021/03/05 04:42:35;;;;;;;17.57;12.43;;;4.50;99.90;;;;;;5054815;28;20183;-71
2021/03/05 04:45:02;;;;;;;20.47;13.03;;;4.60;99.90;;;;;;5055072;28;20494;-71
2021/03/05 04:47:28;;;;;;;18.80;13.60;;;4.60;99.90;;;;;;5056245;28;20535;-71
2021/03/05 04:49:53;;;;;;;16.47;11.67;;;4.60;99.90;;;;;;5056150;28;20437;-71
2021/03/05 04:52:19;;;;;;;16.23;12.00;;;4.50;99.90;;;;;;5054181;28;20177;-71
2021/03/05 04:54:44;;;;;;;15.93;11.87;;;4.40;99.90;;;;;;5056089;28;20210;-71
2021/03/05 04:57:10;;;;;;;17.30;12.30;;;4.30;99.90;;;;;;5055903;28;20273;-71
2021/03/05 04:59:35;;;;;;;16.93;11.10;;;4.30;99.90;;;;;;5055813;28;20676;-70
2021/03/05 05:02:01;;;;;;;16.43;11.60;;;4.40;99.90;;;;;;5056493;28;20164;-71
2021/03/05 05:04:26;;;;;;;14.90;10.93;;;4.30;99.90;;;;;;5055250;28;20178;-70
2021/03/05 05:06:52;;;;;;;15.10;10.50;;;4.20;99.90;;;;;;5055799;28;20604;-72
2021/03/05 05:09:19;;;;;;;16.83;10.53;;;4.10;99.90;;;;;;5055280;28;20296;-71
2021/03/05 05:11:45;;;;;;;14.37;9.87;;;4.10;99.90;;;;;;5055729;28;20173;-71
2021/03/05 05:14:10;;;;;;;12.40;10.10;;;4.10;99.90;;;;;;5055011;28;20754;-72
2021/03/05 05:16:36;;;;;;;14.10;10.37;;;4.20;99.90;;;;;;5055688;28;20548;-71
2021/03/05 05:19:01;;;;;;;15.93;9.90;;;4.20;99.90;;;;;;5055127;28;20212;-71
2021/03/05 05:21:27;;;;;;;9.90;8.10;;;4.30;99.90;;;;;;5053343;28;20685;-71
2021/03/05 05:23:52;;;;;;;11.33;8.77;;;4.30;99.90;;;;;;5049065;28;20178;-72
2021/03/05 05:26:18;;;;;;;11.60;8.73;;;4.30;99.90;;;;;;5055561;28;20179;-71
2021/03/05 05:28:44;;;;;;;11.43;8.30;;;4.10;99.90;;;;;;5055776;28;20190;-71
2021/03/05 05:31:09;;;;;;;6.40;5.77;;;3.90;99.90;;;;;;5050780;28;20276;-71
2021/03/05 05:33:35;;;;;;;9.60;6.90;;;3.70;99.90;;;;;;5049811;28;20266;-71
2021/03/05 05:36:00;;;;;;;9.63;7.50;;;3.50;99.90;;;;;;5046877;28;20248;-71
2021/03/05 05:38:26;;;;;;;8.00;6.90;;;3.40;99.90;;;;;;5044872;28;20298;-71
2021/03/05 05:40:51;;;;;;;11.33;8.07;;;3.60;99.90;;;;;;5045138;28;20235;-71
2021/03/05 05:43:17;;;;;;;10.37;7.70;;;3.70;99.90;;;;;;5047156;28;20199;-71
2021/03/05 05:45:45;;;;;;;7.50;6.70;;;3.70;99.90;;;;;;5046423;28;20219;-71
2021/03/05 05:48:12;;;;;;;8.37;7.17;;;3.90;99.90;;;;;;5043786;28;20581;-71
2021/03/05 05:50:38;;;;;;;12.70;7.23;;;4.00;99.90;;;;;;5042294;28;20458;-72
2021/03/05 05:53:07;;;;;;;7.67;6.83;;;4.10;99.90;;;;;;5042936;28;20434;-72
2021/03/05 05:55:33;;;;;;;8.97;6.70;;;4.10;99.90;;;;;;5050346;28;20431;-72
2021/03/05 05:57:58;;;;;;;7.80;6.30;;;4.10;99.90;;;;;;5039533;28;20450;-72
2021/03/05 06:00:25;;;;;;;11.37;7.20;;;4.00;99.90;;;;;;5055326;28;20429;-72
2021/03/05 06:02:52;;;;;;;8.53;6.90;;;4.00;99.90;;;;;;5047294;28;20262;-72
2021/03/05 06:05:17;;;;;;;7.33;5.20;;;3.80;99.90;;;;;;5037905;28;20489;-72
2021/03/05 06:07:44;;;;;;;7.93;7.20;;;3.70;99.90;;;;;;5045088;28;20434;-71
2021/03/05 06:10:11;;;;;;;7.23;6.37;;;3.70;99.90;;;;;;5051647;28;20194;-72
2021/03/05 06:12:37;;;;;;;7.00;5.20;;;3.60;99.90;;;;;;5048869;28;20423;-72
2021/03/05 06:15:03;;;;;;;7.30;5.20;;;3.60;99.90;;;;;;5052489;28;20413;-71
2021/03/05 06:17:47;;;;;;;4.83;4.33;;;3.50;99.90;;;;;;5053297;28;20443;-71
2021/03/05 06:20:14;;;;;;;6.97;4.60;;;3.20;99.90;;;;;;5061238;28;20440;-72
2021/03/05 06:22:40;;;;;;;4.70;4.10;;;3.10;99.90;;;;;;5055723;28;20507;-72
2021/03/05 06:25:08;;;;;;;6.73;6.10;;;3.10;99.90;;;;;;5064590;28;20409;-72
2021/03/05 06:27:35;;;;;;;5.33;4.83;;;3.10;99.90;;;;;;5068110;28;20429;-71
2021/03/05 06:30:00;;;;;;;8.20;4.00;;;3.10;99.90;;;;;;5072075;28;20438;-71
2021/03/05 06:32:52;;;;;;;4.00;3.07;;;3.00;99.90;;;;;;5060334;28;20765;-71
2021/03/05 06:35:24;;;;;;;4.17;3.77;;;2.90;99.90;;;;;;5064900;28;20690;-72
2021/03/05 06:37:50;;;;;;;4.40;4.00;;;2.80;99.90;;;;;;5066266;28;20432;-73
2021/03/05 06:40:16;;;;;;;5.10;3.73;;;2.80;99.90;;;;;;5071772;28;20456;-72
2021/03/05 06:42:52;;;;;;;4.20;3.70;;;2.80;99.90;;;;;;5054315;28;20205;-72
2021/03/05 06:45:20;;;;;;;5.20;4.30;;;2.70;99.90;;;;;;5053606;28;20522;-71
2021/03/05 06:48:08;;;;;;;7.00;4.73;;;2.80;99.90;;;;;;5049912;28;20452;-71
2021/03/05 06:50:39;;;;;;;5.73;4.40;;;2.90;99.90;;;;;;5039823;28;20476;-73
2021/03/05 06:53:25;;;;;;;3.70;3.40;;;3.00;99.90;;;;;;5051843;28;20416;-72
2021/03/05 06:55:51;;;;;;;5.37;3.90;;;3.00;99.90;;;;;;5058275;28;20918;-71
2021/03/05 06:58:17;;;;;;;3.57;3.27;;;3.00;99.90;;;;;;5056421;28;20453;-72
2021/03/05 07:00:42;;;;;;;6.60;3.43;;;3.10;99.90;;;;;;5059746;28;20517;-72
2021/03/05 07:03:22;;;;;;;5.07;4.57;;;3.20;99.90;;;;;;5053813;28;20177;-72
2021/03/05 07:05:49;;;;;;;4.13;3.53;;;3.20;99.90;;;;;;5052227;28;20198;-73
2021/03/05 07:08:38;;;;;;;4.23;3.70;;;3.00;99.90;;;;;;5054235;28;20421;-72
2021/03/05 07:11:04;;;;;;;4.83;3.33;;;3.10;99.90;;;;;;5059882;28;20453;-72
2021/03/05 07:13:47;;;;;;;4.33;3.90;;;3.10;99.90;;;;;;5077206;28;20424;-72
2021/03/05 07:16:13;;;;;;;3.73;3.43;;;3.30;99.90;;;;;;5056321;28;20177;-72
2021/03/05 07:18:38;;;;;;;4.83;3.90;;;3.20;99.90;;;;;;5071360;28;20653;-72
2021/03/05 07:21:05;;;;;;;5.03;3.80;;;3.10;99.90;;;;;;5082352;28;20254;-72
2021/03/05 07:23:32;;;;;;;4.93;3.60;;;3.10;99.90;;;;;;5068357;28;20188;-72
2021/03/05 07:25:59;;;;;;;6.67;3.80;;;3.00;99.90;;;;;;5056724;28;20442;-71
2021/03/05 07:28:25;;;;;;;6.27;4.10;;;2.90;99.90;;;;;;5045625;28;20462;-71
2021/03/05 07:30:51;;;;;;;4.97;4.47;;;2.80;99.90;;;;;;5054913;28;21061;-72
2021/03/05 07:33:19;;;;;;;4.40;3.93;;;2.70;99.90;;;;;;5047866;28;20511;-72
2021/03/05 07:35:46;;;;;;;5.27;4.43;;;2.80;99.90;;;;;;5052950;28;20417;-72
2021/03/05 07:38:18;;;;;;;4.90;4.50;;;2.90;99.90;;;;;;5049501;28;20448;-73
2021/03/05 07:40:44;;;;;;;4.97;4.20;;;3.00;99.90;;;;;;5045701;28;20450;-72
2021/03/05 07:43:10;;;;;;;7.60;3.63;;;3.10;99.90;;;;;;5049955;28;20503;-72
2021/03/05 07:45:36;;;;;;;6.27;4.80;;;2.80;99.90;;;;;;5048040;28;20463;-70
2021/03/05 07:48:07;;;;;;;8.80;6.23;;;2.60;99.90;;;;;;5049443;28;20535;-72
2021/03/05 07:50:32;;;;;;;6.43;4.47;;;2.50;99.90;;;;;;5052807;28;20487;-72
2021/03/05 07:52:59;;;;;;;8.33;4.60;;;2.50;99.90;;;;;;5047926;28;20498;-72
2021/03/05 07:55:36;;;;;;;5.77;5.27;;;2.60;99.90;;;;;;5047378;28;20593;-70
2021/03/05 07:58:01;;;;;;;7.30;4.20;;;2.80;99.90;;;;;;5053223;28;20472;-72
2021/03/05 08:00:47;;;;;;;5.20;4.77;;;2.80;99.90;;;;;;5042465;28;20481;-71
2021/03/05 08:03:13;;;;;;;5.03;4.60;;;2.70;99.90;;;;;;5050281;28;20728;-72
2021/03/05 08:05:47;;;;;;;11.50;5.47;;;2.80;99.90;;;;;;5055386;28;20416;-72
2021/03/05 08:08:17;;;;;;;8.13;4.90;;;2.80;99.90;;;;;;5054250;28;20454;-71
2021/03/05 08:10:49;;;;;;;7.73;6.00;;;2.80;99.90;;;;;;5062041;28;20443;-72
2021/03/05 08:13:50;;;;;;;7.70;6.27;;;2.70;99.90;;;;;;5047413;28;20441;-71
2021/03/05 08:16:32;;;;;;;9.27;7.60;;;2.80;99.90;;;;;;5049205;28;20425;-72
2021/03/05 08:19:03;;;;;;;11.40;7.20;;;3.00;99.90;;;;;;5037995;28;20495;-71
2021/03/05 08:21:55;;;;;;;8.63;7.70;;;3.10;99.90;;;;;;5052903;28;20420;-72
2021/03/05 08:24:24;;;;;;;10.50;8.50;;;3.20;99.90;;;;;;5051099;28;20425;-72
2021/03/05 08:27:06;;;;;;;12.03;7.43;;;3.10;99.90;;;;;;5044010;28;20423;-71
2021/03/05 08:29:47;;;;;;;10.93;8.57;;;3.10;99.90;;;;;;5052413;28;20442;-70
2021/03/05 08:32:34;;;;;;;9.70;8.10;;;3.20;99.90;;;;;;5045053;28;20434;-71
2021/03/05 08:35:18;;;;;;;10.30;8.50;;;3.10;99.90;;;;;;5056608;28;20403;-71
2021/03/05 08:37:54;;;;;;;10.73;8.20;;;3.10;99.90;;;;;;5055780;28;20749;-71
2021/03/05 08:40:21;;;;;;;10.57;9.53;;;3.00;99.90;;;;;;5054616;28;20437;-72
2021/03/05 08:42:50;;;;;;;10.07;8.77;;;3.20;99.90;;;;;;5054434;28;20488;-73
2021/03/05 08:45:16;;;;;;;10.20;9.37;;;3.10;99.90;;;;;;5054749;28;20421;-72
2021/03/05 08:47:44;;;;;;;10.30;8.60;;;3.30;99.90;;;;;;5054892;28;20424;-72
2021/03/05 08:50:11;;;;;;;9.87;8.20;;;3.30;99.90;;;;;;5041542;28;20483;-73
2021/03/05 08:52:40;;;;;;;10.40;9.03;;;3.50;99.90;;;;;;5036220;28;20895;-70
2021/03/05 08:55:07;;;;;;;10.30;8.87;;;3.70;99.90;;;;;;5035232;28;20456;-71
2021/03/05 08:57:54;;;;;;;9.80;8.00;;;3.80;99.90;;;;;;5034970;28;20407;-71
2021/03/05 09:00:27;;;;;;;9.33;8.47;;;3.50;99.90;;;;;;5042861;28;20782;-71
2021/03/05 09:03:01;;;;;;;13.50;8.50;;;3.30;99.90;;;;;;5036083;28;20422;-71
2021/03/05 09:05:31;;;;;;;9.77;8.20;;;3.30;99.90;;;;;;5043147;28;20888;-71
2021/03/05 09:07:58;;;;;;;9.60;7.10;;;3.40;99.90;;;;;;5055150;28;20566;-71
2021/03/05 09:10:39;;;;;;;8.90;8.03;;;3.40;99.90;;;;;;5049193;28;20471;-71
2021/03/05 09:13:05;;;;;;;7.97;7.17;;;3.30;99.90;;;;;;5051585;28;20836;-71
2021/03/05 09:15:45;;;;;;;9.00;7.70;;;3.10;99.90;;;;;;5049750;28;20493;-71
2021/03/05 09:18:16;;;;;;;10.97;8.50;;;3.10;99.90;;;;;;5050810;28;20248;-72
2021/03/05 09:20:45;;;;;;;12.40;7.30;;;3.30;99.90;;;;;;5045530;28;20449;-71
2021/03/05 09:23:18;;;;;;;6.53;6.00;;;3.50;99.90;;;;;;5035831;28;20411;-72
2021/03/05 09:25:55;;;;;;;11.03;7.50;;;3.60;99.90;;;;;;5052214;28;20878;-72
2021/03/05 09:28:22;;;;;;;7.20;6.50;;;3.60;99.90;;;;;;5047367;28;20952;-72
2021/03/05 09:30:54;;;;;;;11.37;7.53;;;3.70;99.90;;;;;;5046943;28;20849;-72
2021/03/05 09:33:31;;;;;;;7.87;6.70;;;3.90;99.90;;;;;;5036882;28;20420;-72
2021/03/05 09:35:59;;;;;;;11.23;6.80;;;3.80;99.90;;;;;;5050471;28;20464;-71
2021/03/05 09:38:25;;;;;;;10.90;7.53;;;3.60;99.90;;;;;;5051723;28;20548;-72
2021/03/05 09:40:50;;;;;;;9.73;7.17;;;3.60;99.90;;;;;;5054736;28;20538;-72
2021/03/05 09:43:17;;;;;;;8.90;6.43;;;3.60;99.90;;;;;;5053340;28;20542;-72
2021/03/05 09:45:49;;;;;;;6.70;6.07;;;3.60;99.90;;;;;;5054500;28;20572;-72
2021/03/05 09:48:29;;;;;;;7.30;6.53;;;3.60;99.90;;;;;;5053196;28;20425;-72
2021/03/05 09:50:57;;;;;;;8.33;7.50;;;3.90;99.90;;;;;;5035005;28;20783;-71
2021/03/05 09:53:32;;;;;;;7.10;6.50;;;4.00;99.90;;;;;;5033675;28;20414;-72
2021/03/05 09:56:05;;;;;;;7.80;6.13;;;4.00;99.90;;;;;;5035847;28;20420;-71
2021/03/05 09:58:31;;;;;;;7.60;6.53;;;4.10;99.90;;;;;;5034976;28;20792;-72
2021/03/05 10:00:58;;;;;;;8.50;5.73;;;4.30;99.90;;;;;;5047353;28;20467;-73
2021/03/05 10:03:24;;;;;;;9.67;6.90;;;4.20;99.90;;;;;;5053739;28;20172;-72
2021/03/05 10:05:50;;;;;;;7.57;6.20;;;4.30;99.90;;;;;;5054940;28;20493;-72
2021/03/05 10:08:29;;;;;;;7.83;6.33;;;4.50;99.90;;;;;;5054021;28;20427;-72
2021/03/05 10:10:56;;;;;;;7.93;6.07;;;4.80;99.90;;;;;;5054518;28;20420;-72
2021/03/05 10:13:22;;;;;;;6.60;6.00;;;4.90;99.90;;;;;;5054277;28;20412;-72
2021/03/05 10:15:51;;;;;;;7.57;6.00;;;5.20;99.90;;;;;;5053445;28;20458;-72
2021/03/05 10:18:19;;;;;;;6.60;5.90;;;5.40;99.90;;;;;;5051770;28;20457;-72
2021/03/05 10:20:51;;;;;;;9.00;6.43;;;5.50;99.50;;;;;;5034998;28;20479;-72
2021/03/05 10:23:17;;;;;;;8.80;5.93;;;5.50;99.10;;;;;;5034153;28;20408;-72
2021/03/05 10:25:49;;;;;;;8.50;5.87;;;5.30;98.50;;;;;;5034443;28;20757;-72
2021/03/05 10:28:15;;;;;;;7.83;6.17;;;5.20;98.50;;;;;;5034280;28;20187;-73
2021/03/05 10:30:51;;;;;;;6.83;5.67;;;5.20;98.70;;;;;;5035596;28;20472;-72
2021/03/05 10:33:34;;;;;;;10.03;6.30;;;5.40;98.30;;;;;;5034656;28;20709;-72
2021/03/05 10:36:00;;;;;;;10.03;6.40;;;5.30;97.80;;;;;;5035764;28;20759;-72
2021/03/05 10:38:25;;;;;;;6.27;5.70;;;5.30;97.70;;;;;;5045511;28;20455;-71
2021/03/05 10:40:53;;;;;;;7.20;5.80;;;5.30;97.80;;;;;;5044723;28;20633;-72
2021/03/05 10:43:18;;;;;;;7.70;6.20;;;5.40;98.20;;;;;;5047471;28;20174;-73
2021/03/05 10:45:44;;;;;;;10.83;6.37;;;5.50;98.00;;;;;;5047554;28;20413;-72
2021/03/05 10:48:10;;;;;;;6.93;6.23;;;5.60;97.70;;;;;;5038434;28;20191;-72
2021/03/05 10:50:35;;;;;;;7.37;6.27;;;5.20;97.50;;;;;;5064556;28;20237;-71
2021/03/05 10:53:01;;;;;;;7.10;6.40;;;5.20;97.70;;;;;;5054410;28;20189;-71
2021/03/05 10:55:26;;;;;;;8.07;6.13;;;5.00;97.50;;;;;;5041014;28;20246;-73
2021/03/05 10:57:52;;;;;;;9.33;6.47;;;4.90;97.40;;;;;;5031246;28;20177;-72
2021/03/05 11:00:18;;;;;;;7.37;6.30;;;4.50;97.20;;;;;;5033020;28;20651;-73
2021/03/05 11:02:44;;;;;;;9.60;6.70;;;4.50;98.00;;;;;;5034519;28;20197;-71
2021/03/05 11:05:10;;;;;;;7.87;6.00;;;4.70;98.50;;;;;;5033564;28;20413;-72
2021/03/05 11:07:36;;;;;;;8.80;5.60;;;4.80;98.50;;;;;;5034605;28;20431;-72
2021/03/05 11:10:02;;;;;;;7.53;6.10;;;4.90;98.00;;;;;;5033979;28;20286;-73
2021/03/05 11:12:27;;;;;;;6.70;6.00;;;5.00;98.10;;;;;;5035650;28;20186;-71
2021/03/05 11:14:53;;;;;;;8.27;6.03;;;5.00;97.70;;;;;;5036187;28;20199;-72
2021/03/05 11:17:21;;;;;;;6.70;6.10;;;5.10;97.90;;;;;;5034768;28;20201;-72
2021/03/05 11:19:47;;;;;;;8.93;6.23;;;5.10;97.10;;;;;;5033191;28;20212;-74
2021/03/05 11:22:12;;;;;;;7.43;5.27;;;5.20;97.40;;;;;;5034928;28;20439;-73
2021/03/05 11:24:38;;;;;;;6.03;5.43;;;5.40;97.10;;;;;;5042410;28;20619;-72
2021/03/05 11:27:04;;;;;;;7.33;5.17;;;5.50;96.20;;;;;;5047728;28;20194;-72
2021/03/05 11:29:31;;;;;;;6.80;6.17;;;5.50;95.90;;;;;;5051648;28;20182;-72
2021/03/05 11:31:57;;;;;;;8.00;5.70;;;5.70;95.90;;;;;;5051734;28;20416;-73
2021/03/05 11:34:22;;;;;;;10.47;6.50;;;5.80;95.60;;;;;;5037348;28;20418;-72
2021/03/05 11:36:49;;;;;;;7.00;5.20;;;5.90;95.60;;;;;;5031720;28;20406;-72
2021/03/05 11:39:14;;;;;;;13.40;4.20;;;5.80;94.60;;;;;;5031173;28;20679;-73
2021/03/05 11:41:40;;;;;;;4.67;4.27;;;5.80;94.50;;;;;;5031675;28;20417;-73
2021/03/05 11:44:06;;;;;;;5.10;4.57;;;5.50;93.90;;;;;;5032493;28;20185;-71
2021/03/05 11:46:32;;;;;;;7.73;4.80;;;5.30;94.20;;;;;;5032550;28;20179;-72
2021/03/05 11:48:58;;;;;;;6.93;4.83;;;5.30;94.50;;;;;;5033343;28;20170;-72
2021/03/05 11:51:23;;;;;;;5.43;4.60;;;5.00;94.90;;;;;;5033183;28;20445;-72
2021/03/05 11:53:50;;;;;;;5.60;4.43;;;5.10;95.50;;;;;;5033818;28;20178;-73
2021/03/05 11:56:16;;;;;;;4.33;3.93;;;5.30;95.40;;;;;;5034811;28;20640;-73
2021/03/05 11:58:42;;;;;;;5.23;4.73;;;5.50;95.20;;;;;;5033456;28;20449;-73
2021/03/05 12:01:08;;;;;;;6.67;5.37;;;5.80;94.80;;;;;;5035265;28;20464;-71
2021/03/05 12:03:33;;;;;;;7.07;4.00;;;6.00;94.50;;;;;;5038014;28;20554;-72
2021/03/05 12:05:59;;;;;;;3.80;3.47;;;6.20;94.40;;;;;;5038584;28;20175;-73
2021/03/05 12:08:25;;;;;;;4.73;4.23;;;6.40;94.10;;;;;;5037326;28;20178;-72
2021/03/05 12:10:51;;;;;;;7.47;3.97;;;6.10;91.80;;;;;;5037635;28;20413;-72
2021/03/05 12:13:17;;;;;;;5.80;4.03;;;6.10;92.30;;;;;;5036589;28;20532;-72
2021/03/05 12:15:43;;;;;;;4.67;4.10;;;6.00;92.00;;;;;;5038251;28;20420;-72
2021/03/05 12:18:09;;;;;;;4.70;4.30;;;6.10;92.40;;;;;;5036738;28;20569;-71
2021/03/05 12:20:35;;;;;;;5.80;4.63;;;6.00;92.10;;;;;;5037026;28;20191;-72
2021/03/05 12:23:01;;;;;;;4.83;4.40;;;6.10;92.20;;;;;;5036694;28;20493;-72
2021/03/05 12:25:27;;;;;;;4.93;4.53;;;5.90;91.90;;;;;;5037279;28;20440;-72
2021/03/05 12:27:52;;;;;;;6.60;5.10;;;5.80;92.20;;;;;;5038294;28;20183;-71
2021/03/05 12:30:19;;;;;;;6.07;4.93;;;5.80;92.50;;;;;;5037086;28;20191;-72
2021/03/05 12:32:45;;;;;;;5.97;5.10;;;5.70;92.60;;;;;;5037275;28;20167;-72
2021/03/05 12:35:13;;;;;;;6.03;5.40;;;5.60;92.60;;;;;;5037554;28;20409;-71
2021/03/05 12:37:39;;;;;;;4.90;4.43;;;5.50;92.40;;;;;;5037532;28;20438;-72
2021/03/05 12:40:07;;;;;;;4.50;4.20;;;5.30;92.00;;;;;;5036667;28;20476;-72
2021/03/05 12:42:32;;;;;;;3.90;3.50;;;5.20;91.90;;;;;;5036490;28;20891;-72
2021/03/05 12:44:58;;;;;;;4.00;3.47;;;5.10;91.30;;;;;;5035312;28;20406;-72
2021/03/05 12:47:23;;;;;;;6.50;3.13;;;5.00;91.30;;;;;;5037959;28;20167;-72
2021/03/05 12:49:49;;;;;;;4.70;3.47;;;5.00;90.70;;;;;;5056347;28;20216;-72
2021/03/05 12:52:14;;;;;;;3.00;2.77;;;5.00;90.30;;;;;;5057145;28;20167;-72
2021/03/05 12:54:40;;;;;;;2.70;2.50;;;5.10;90.00;;;;;;5057087;28;20640;-72